createdAt,value
2017-10-08T00:00:39.658Z,9.69
2017-10-08T00:01:39.657Z,9.69
2017-10-08T00:02:39.660Z,9.76
2017-10-08T00:03:39.663Z,9.70
2017-10-08T00:04:39.657Z,9.85
2017-10-08T00:05:39.660Z,9.85
2017-10-08T00:06:39.660Z,9.87
2017-10-08T00:07:39.660Z,9.90
2017-10-08T00:08:39.661Z,9.95
2017-10-08T00:09:39.659Z,9.97
2017-10-08T00:10:39.662Z,9.82
2017-10-08T00:11:39.660Z,9.84
2017-10-08T00:12:39.661Z,9.81
2017-10-08T00:13:39.961Z,9.85
2017-10-08T00:14:39.661Z,9.95
2017-10-08T00:15:39.662Z,9.95
2017-10-08T00:16:39.664Z,9.88
2017-10-08T00:17:39.664Z,9.85
2017-10-08T00:18:39.666Z,9.84
2017-10-08T00:19:39.665Z,9.84
2017-10-08T00:20:39.665Z,9.73
2017-10-08T00:21:39.665Z,9.76
2017-10-08T00:22:39.665Z,9.80
2017-10-08T00:23:39.668Z,9.76
2017-10-08T00:24:39.665Z,9.76
2017-10-08T00:25:39.667Z,9.74
2017-10-08T00:26:39.667Z,9.73
2017-10-08T00:27:39.666Z,9.77
2017-10-08T00:28:39.667Z,9.74
2017-10-08T00:29:39.668Z,9.74
2017-10-08T00:30:39.669Z,9.66
2017-10-08T00:31:39.668Z,9.63
2017-10-08T00:32:39.668Z,9.62
2017-10-08T00:33:39.669Z,9.73
2017-10-08T00:34:39.670Z,9.63
2017-10-08T00:35:39.669Z,9.64
2017-10-08T00:36:39.670Z,9.73
2017-10-08T00:37:39.670Z,9.84
2017-10-08T00:38:39.670Z,9.97
2017-10-08T00:39:39.672Z,10.10
2017-10-08T00:40:39.670Z,10.25
2017-10-08T00:41:39.671Z,10.43
2017-10-08T00:42:39.671Z,10.46
2017-10-08T00:43:39.672Z,10.41
2017-10-08T00:44:39.673Z,10.45
2017-10-08T00:45:39.675Z,10.67
2017-10-08T00:46:39.673Z,10.61
2017-10-08T00:47:39.676Z,10.75
2017-10-08T00:48:39.672Z,10.57
2017-10-08T00:49:39.673Z,10.67
2017-10-08T00:50:39.675Z,10.46
2017-10-08T00:51:39.674Z,10.46
2017-10-08T00:52:39.675Z,10.41
2017-10-08T00:53:39.674Z,10.23
2017-10-08T00:54:39.676Z,10.33
2017-10-08T00:55:39.674Z,10.25
2017-10-08T00:56:39.674Z,10.24
2017-10-08T00:57:39.679Z,10.28
2017-10-08T00:58:39.676Z,10.27
2017-10-08T00:59:39.675Z,10.25
2017-10-08T01:00:39.677Z,10.27
2017-10-08T01:01:39.677Z,10.21
2017-10-08T01:02:39.678Z,10.15
2017-10-08T01:03:39.681Z,10.13
2017-10-08T01:04:39.678Z,10.30
2017-10-08T01:05:39.679Z,10.27
2017-10-08T01:06:39.680Z,10.61
2017-10-08T01:07:39.678Z,10.64
2017-10-08T01:08:39.679Z,10.82
2017-10-08T01:09:39.680Z,11.01
2017-10-08T01:10:39.681Z,11.15
2017-10-08T01:11:39.679Z,11.15
2017-10-08T01:12:39.680Z,11.20
2017-10-08T01:13:39.682Z,11.19
2017-10-08T01:14:39.682Z,11.12
2017-10-08T01:15:39.682Z,11.02
2017-10-08T01:16:39.682Z,11.02
2017-10-08T01:17:39.682Z,10.98
2017-10-08T01:18:39.684Z,10.90
2017-10-08T01:19:39.682Z,10.92
2017-10-08T01:20:39.684Z,10.90
2017-10-08T01:21:39.684Z,10.87
2017-10-08T01:22:39.685Z,10.89
2017-10-08T01:23:39.684Z,10.89
2017-10-08T01:24:39.686Z,10.89
2017-10-08T01:25:39.687Z,10.84
2017-10-08T01:26:39.687Z,10.86
2017-10-08T01:27:39.686Z,10.92
2017-10-08T01:28:39.688Z,10.97
2017-10-08T01:29:39.687Z,11.04
2017-10-08T01:30:39.688Z,11.02
2017-10-08T01:31:39.688Z,11.16
2017-10-08T01:32:39.688Z,11.30
2017-10-08T01:33:39.690Z,11.27
2017-10-08T01:34:39.690Z,11.34
2017-10-08T01:35:39.688Z,11.33
2017-10-08T01:36:39.689Z,11.38
2017-10-08T01:37:39.691Z,11.40
2017-10-08T01:38:39.692Z,11.48
2017-10-08T01:39:39.692Z,11.48
2017-10-08T01:40:39.693Z,11.44
2017-10-08T01:41:39.693Z,11.43
2017-10-08T01:42:39.694Z,11.40
2017-10-08T01:43:39.693Z,11.38
2017-10-08T01:44:39.694Z,11.34
2017-10-08T01:45:39.694Z,11.33
2017-10-08T01:46:39.696Z,11.34
2017-10-08T01:47:39.695Z,11.31
2017-10-08T01:48:39.696Z,11.23
2017-10-08T01:49:39.697Z,11.22
2017-10-08T01:50:39.697Z,11.12
2017-10-08T01:51:39.696Z,11.08
2017-10-08T01:52:39.697Z,11.01
2017-10-08T01:53:39.697Z,11.00
2017-10-08T01:54:39.698Z,10.87
2017-10-08T01:55:39.697Z,10.77
2017-10-08T01:56:39.699Z,10.75
2017-10-08T01:57:39.698Z,10.65
2017-10-08T01:58:39.698Z,10.62
2017-10-08T01:59:39.698Z,10.59
2017-10-08T02:00:39.700Z,10.65
2017-10-08T02:01:39.699Z,10.57
2017-10-08T02:02:39.701Z,10.48
2017-10-08T02:03:39.699Z,10.57
2017-10-08T02:04:39.700Z,10.48
2017-10-08T02:05:39.701Z,10.49
2017-10-08T02:06:39.700Z,10.33
2017-10-08T02:07:39.700Z,10.45
2017-10-08T02:08:39.701Z,10.39
2017-10-08T02:09:39.700Z,10.39
2017-10-08T02:10:39.699Z,10.36
2017-10-08T02:11:39.699Z,10.45
2017-10-08T02:12:39.699Z,10.23
2017-10-08T02:13:39.699Z,10.23
2017-10-08T02:14:39.699Z,10.10
2017-10-08T02:15:39.699Z,10.12
2017-10-08T02:16:39.699Z,10.03
2017-10-08T02:17:39.698Z,10.05
2017-10-08T02:18:39.700Z,10.03
2017-10-08T02:19:39.698Z,9.92
2017-10-08T02:20:39.698Z,9.84
2017-10-08T02:21:39.698Z,9.84
2017-10-08T02:22:39.698Z,9.85
2017-10-08T02:23:39.697Z,9.74
2017-10-08T02:24:39.698Z,9.73
2017-10-08T02:25:39.697Z,9.77
2017-10-08T02:26:39.699Z,9.73
2017-10-08T02:27:39.698Z,9.66
2017-10-08T02:28:39.697Z,9.66
2017-10-08T02:29:39.697Z,9.63
2017-10-08T02:30:39.698Z,9.59
2017-10-08T02:31:39.694Z,9.48
2017-10-08T02:32:39.696Z,9.59
2017-10-08T02:33:39.696Z,9.45
2017-10-08T02:34:39.694Z,9.47
2017-10-08T02:35:39.695Z,9.34
2017-10-08T02:36:39.694Z,9.33
2017-10-08T02:37:39.694Z,9.36
2017-10-08T02:38:39.693Z,9.34
2017-10-08T02:39:39.694Z,9.30
2017-10-08T02:40:39.692Z,9.34
2017-10-08T02:41:39.692Z,9.33
2017-10-08T02:42:39.691Z,9.36
2017-10-08T02:43:39.690Z,9.36
2017-10-08T02:44:39.691Z,9.29
2017-10-08T02:45:39.691Z,9.30
2017-10-08T02:46:39.690Z,9.18
2017-10-08T02:47:39.690Z,9.22
2017-10-08T02:48:39.690Z,9.13
2017-10-08T02:49:39.688Z,9.27
2017-10-08T02:50:39.689Z,9.22
2017-10-08T02:51:39.688Z,9.22
2017-10-08T02:52:39.686Z,9.18
2017-10-08T02:53:39.687Z,9.05
2017-10-08T02:54:39.686Z,9.11
2017-10-08T02:55:39.685Z,9.09
2017-10-08T02:56:39.686Z,9.11
2017-10-08T02:57:39.685Z,9.13
2017-10-08T02:58:39.685Z,9.05
2017-10-08T02:59:39.682Z,9.05
2017-10-08T03:00:39.683Z,9.05
2017-10-08T03:01:39.682Z,9.08
2017-10-08T03:02:39.681Z,8.96
2017-10-08T03:03:39.681Z,9.09
2017-10-08T03:04:39.680Z,8.95
2017-10-08T03:05:39.680Z,9.02
2017-10-08T03:06:39.682Z,9.11
2017-10-08T03:07:39.679Z,9.03
2017-10-08T03:08:39.679Z,8.97
2017-10-08T03:09:39.679Z,8.96
2017-10-08T03:10:39.678Z,8.99
2017-10-08T03:11:39.678Z,8.87
2017-10-08T03:12:39.677Z,9.08
2017-10-08T03:13:39.675Z,9.00
2017-10-08T03:14:39.676Z,9.03
2017-10-08T03:15:39.675Z,9.08
2017-10-08T03:16:39.674Z,9.08
2017-10-08T03:17:39.673Z,9.05
2017-10-08T03:18:39.675Z,9.00
2017-10-08T03:19:39.670Z,9.08
2017-10-08T03:20:39.670Z,9.03
2017-10-08T03:21:39.671Z,9.12
2017-10-08T03:22:39.671Z,9.15
2017-10-08T03:23:39.669Z,9.12
2017-10-08T03:24:39.669Z,9.16
2017-10-08T03:25:39.668Z,9.16
2017-10-08T03:26:39.669Z,9.12
2017-10-08T03:27:39.666Z,9.11
2017-10-08T03:28:39.666Z,9.22
2017-10-08T03:29:39.665Z,9.22
2017-10-08T03:30:39.666Z,9.18
2017-10-08T03:31:39.663Z,9.27
2017-10-08T03:32:39.664Z,9.24
2017-10-08T03:33:39.663Z,9.29
2017-10-08T03:34:39.663Z,9.26
2017-10-08T03:35:39.662Z,9.21
2017-10-08T03:36:39.662Z,9.27
2017-10-08T03:37:39.661Z,9.24
2017-10-08T03:38:39.660Z,9.26
2017-10-08T03:39:39.660Z,9.36
2017-10-08T03:40:39.660Z,9.29
2017-10-08T03:41:39.660Z,9.30
2017-10-08T03:42:39.659Z,9.36
2017-10-08T03:43:39.657Z,9.33
2017-10-08T03:44:39.665Z,9.26
2017-10-08T03:45:39.657Z,9.26
2017-10-08T03:46:39.660Z,9.29
2017-10-08T03:47:39.655Z,9.31
2017-10-08T03:48:39.656Z,9.27
2017-10-08T03:49:39.654Z,9.30
2017-10-08T03:50:39.654Z,9.24
2017-10-08T03:51:39.654Z,9.18
2017-10-08T03:52:39.652Z,9.11
2017-10-08T03:53:39.654Z,9.03
2017-10-08T03:54:39.656Z,8.93
2017-10-08T03:55:39.652Z,9.02
2017-10-08T03:56:39.652Z,8.95
2017-10-08T03:57:39.652Z,8.90
2017-10-08T03:58:39.651Z,8.78
2017-10-08T03:59:39.651Z,8.92
2017-10-08T04:00:39.650Z,8.81
2017-10-08T04:01:39.650Z,8.89
2017-10-08T04:02:39.650Z,8.82
2017-10-08T04:03:39.649Z,8.75
2017-10-08T04:04:39.648Z,8.71
2017-10-08T04:05:39.647Z,8.81
2017-10-08T04:06:39.647Z,8.75
2017-10-08T04:07:39.646Z,8.77
2017-10-08T04:08:39.646Z,8.78
2017-10-08T04:09:39.648Z,8.77
2017-10-08T04:10:39.645Z,8.74
2017-10-08T04:11:39.644Z,8.72
2017-10-08T04:12:39.644Z,8.61
2017-10-08T04:13:39.644Z,8.64
2017-10-08T04:14:39.643Z,8.64
2017-10-08T04:15:39.642Z,8.71
2017-10-08T04:16:39.641Z,8.72
2017-10-08T04:17:39.641Z,8.68
2017-10-08T04:18:39.640Z,8.64
2017-10-08T04:19:39.640Z,8.63
2017-10-08T04:20:39.638Z,8.68
2017-10-08T04:21:39.638Z,8.72
2017-10-08T04:22:39.637Z,8.59
2017-10-08T04:23:39.639Z,8.60
2017-10-08T04:24:39.637Z,8.68
2017-10-08T04:25:39.635Z,8.59
2017-10-08T04:26:39.635Z,8.69
2017-10-08T04:27:39.634Z,8.56
2017-10-08T04:28:39.634Z,8.61
2017-10-08T04:29:39.634Z,8.52
2017-10-08T04:30:39.633Z,8.63
2017-10-08T04:31:39.631Z,8.68
2017-10-08T04:32:39.631Z,8.60
2017-10-08T04:33:39.632Z,8.60
2017-10-08T04:34:39.630Z,8.61
2017-10-08T04:35:39.630Z,8.57
2017-10-08T04:36:39.628Z,8.60
2017-10-08T04:37:39.628Z,8.64
2017-10-08T04:38:39.628Z,8.64
2017-10-08T04:39:39.624Z,8.61
2017-10-08T04:40:39.626Z,8.68
2017-10-08T04:41:39.624Z,8.57
2017-10-08T04:42:39.625Z,8.57
2017-10-08T04:43:39.623Z,8.57
2017-10-08T04:44:39.622Z,8.61
2017-10-08T04:45:39.622Z,8.64
2017-10-08T04:46:39.621Z,8.69
2017-10-08T04:47:39.625Z,8.68
2017-10-08T04:48:39.620Z,8.79
2017-10-08T04:49:39.619Z,8.78
2017-10-08T04:50:39.618Z,8.81
2017-10-08T04:51:39.620Z,8.86
2017-10-08T04:52:39.616Z,8.86
2017-10-08T04:53:39.615Z,8.86
2017-10-08T04:54:39.616Z,8.87
2017-10-08T04:55:39.614Z,8.79
2017-10-08T04:56:39.613Z,8.72
2017-10-08T04:57:39.614Z,8.72
2017-10-08T04:58:39.614Z,8.60
2017-10-08T04:59:39.612Z,8.56
2017-10-08T05:00:39.611Z,8.61
2017-10-08T05:01:39.611Z,8.64
2017-10-08T05:02:39.610Z,8.77
2017-10-08T05:03:39.610Z,8.75
2017-10-08T05:04:39.609Z,8.79
2017-10-08T05:05:39.607Z,8.75
2017-10-08T05:06:39.608Z,8.82
2017-10-08T05:07:39.607Z,8.82
2017-10-08T05:08:39.606Z,8.82
2017-10-08T05:09:39.605Z,8.75
2017-10-08T05:10:39.606Z,8.72
2017-10-08T05:11:39.604Z,8.71
2017-10-08T05:12:39.604Z,8.77
2017-10-08T05:13:39.604Z,8.68
2017-10-08T05:14:39.603Z,8.66
2017-10-08T05:15:39.601Z,8.69
2017-10-08T05:16:39.601Z,8.77
2017-10-08T05:17:39.601Z,8.79
2017-10-08T05:18:39.602Z,8.75
2017-10-08T05:19:39.601Z,8.86
2017-10-08T05:20:39.620Z,8.86
2017-10-08T05:21:39.599Z,8.86
2017-10-08T05:22:39.600Z,8.87
2017-10-08T05:23:39.597Z,8.92
2017-10-08T05:24:39.596Z,8.82
2017-10-08T05:25:39.598Z,8.92
2017-10-08T05:26:39.596Z,8.92
2017-10-08T05:27:39.595Z,8.93
2017-10-08T05:28:39.598Z,8.95
2017-10-08T05:29:39.594Z,8.96
2017-10-08T05:30:39.594Z,9.02
2017-10-08T05:31:39.594Z,8.95
2017-10-08T05:32:39.592Z,8.90
2017-10-08T05:33:39.592Z,8.86
2017-10-08T05:34:39.591Z,8.79
2017-10-08T05:35:39.591Z,8.86
2017-10-08T05:36:39.590Z,8.82
2017-10-08T05:37:39.591Z,8.82
2017-10-08T05:38:39.590Z,8.95
2017-10-08T05:39:39.590Z,8.90
2017-10-08T05:40:39.589Z,8.97
2017-10-08T05:41:39.587Z,8.96
2017-10-08T05:42:39.588Z,8.92
2017-10-08T05:43:39.587Z,8.95
2017-10-08T05:44:39.587Z,8.96
2017-10-08T05:45:39.586Z,9.00
2017-10-08T05:46:39.587Z,8.99
2017-10-08T05:47:39.584Z,9.00
2017-10-08T05:48:39.584Z,9.05
2017-10-08T05:49:39.585Z,9.00
2017-10-08T05:50:39.583Z,9.05
2017-10-08T05:51:39.583Z,9.05
2017-10-08T05:52:39.583Z,9.11
2017-10-08T05:53:39.582Z,9.13
2017-10-08T05:54:39.582Z,9.11
2017-10-08T05:55:39.583Z,9.16
2017-10-08T05:56:39.582Z,9.24
2017-10-08T05:57:39.581Z,9.22
2017-10-08T05:58:39.582Z,9.27
2017-10-08T05:59:39.579Z,9.29
2017-10-08T06:00:39.580Z,9.34
2017-10-08T06:01:39.579Z,9.37
2017-10-08T06:02:39.578Z,9.40
2017-10-08T06:03:39.581Z,9.49
2017-10-08T06:04:39.579Z,9.44
2017-10-08T06:05:39.578Z,9.40
2017-10-08T06:06:39.576Z,9.44
2017-10-08T06:07:39.576Z,9.48
2017-10-08T06:08:39.575Z,9.44
2017-10-08T06:09:39.575Z,9.45
2017-10-08T06:10:39.576Z,9.47
2017-10-08T06:11:39.575Z,9.51
2017-10-08T06:12:39.577Z,9.48
2017-10-08T06:13:39.575Z,9.45
2017-10-08T06:14:39.576Z,9.54
2017-10-08T06:15:39.574Z,9.42
2017-10-08T06:16:39.574Z,9.48
2017-10-08T06:17:39.574Z,9.52
2017-10-08T06:18:39.575Z,9.48
2017-10-08T06:19:39.574Z,9.47
2017-10-08T06:20:39.573Z,9.51
2017-10-08T06:21:39.573Z,9.45
2017-10-08T06:22:39.574Z,9.42
2017-10-08T06:23:39.572Z,9.44
2017-10-08T06:24:39.575Z,9.42
2017-10-08T06:25:39.572Z,9.40
2017-10-08T06:26:39.574Z,9.34
2017-10-08T06:27:39.573Z,9.31
2017-10-08T06:28:39.571Z,9.34
2017-10-08T06:29:39.572Z,9.37
2017-10-08T06:30:39.571Z,9.34
2017-10-08T06:31:39.570Z,9.34
2017-10-08T06:32:39.570Z,9.39
2017-10-08T06:33:39.571Z,9.40
2017-10-08T06:34:39.570Z,9.36
2017-10-08T06:35:39.569Z,9.36
2017-10-08T06:36:39.570Z,9.34
2017-10-08T06:37:39.590Z,9.40
2017-10-08T06:38:39.571Z,9.31
2017-10-08T06:39:39.568Z,9.29
2017-10-08T06:40:39.568Z,9.26
2017-10-08T06:41:39.569Z,9.29
2017-10-08T06:42:39.568Z,9.26
2017-10-08T06:43:39.566Z,9.21
2017-10-08T06:44:39.568Z,9.15
2017-10-08T06:45:39.566Z,9.16
2017-10-08T06:46:39.568Z,9.22
2017-10-08T06:47:39.567Z,9.08
2017-10-08T06:48:39.567Z,9.09
2017-10-08T06:49:39.564Z,9.09
2017-10-08T06:50:39.566Z,9.12
2017-10-08T06:51:39.564Z,9.09
2017-10-08T06:52:39.567Z,9.11
2017-10-08T06:53:39.564Z,9.12
2017-10-08T06:54:39.562Z,9.12
2017-10-08T06:55:39.564Z,9.11
2017-10-08T06:56:39.564Z,9.15
2017-10-08T06:57:39.562Z,9.13
2017-10-08T06:58:39.562Z,9.09
2017-10-08T06:59:39.562Z,9.03
2017-10-08T07:00:39.561Z,9.13
2017-10-08T07:01:39.560Z,9.15
2017-10-08T07:02:39.561Z,9.11
2017-10-08T07:03:39.558Z,9.16
2017-10-08T07:04:39.558Z,9.26
2017-10-08T07:05:39.559Z,9.19
2017-10-08T07:06:39.558Z,9.26
2017-10-08T07:07:39.557Z,9.34
2017-10-08T07:08:39.557Z,9.36
2017-10-08T07:09:39.557Z,9.39
2017-10-08T07:10:39.555Z,9.48
2017-10-08T07:11:39.557Z,9.59
2017-10-08T07:12:39.555Z,9.55
2017-10-08T07:13:39.554Z,9.54
2017-10-08T07:14:39.554Z,9.58
2017-10-08T07:15:39.554Z,9.58
2017-10-08T07:16:39.553Z,9.73
2017-10-08T07:17:39.553Z,9.67
2017-10-08T07:18:39.552Z,9.55
2017-10-08T07:19:39.551Z,9.52
2017-10-08T07:20:39.553Z,9.49
2017-10-08T07:21:39.552Z,9.49
2017-10-08T07:22:39.551Z,9.47
2017-10-08T07:23:39.551Z,9.36
2017-10-08T07:24:39.550Z,9.33
2017-10-08T07:25:39.550Z,9.39
2017-10-08T07:26:39.550Z,9.37
2017-10-08T07:27:39.549Z,9.37
2017-10-08T07:28:39.551Z,9.39
2017-10-08T07:29:39.549Z,9.36
2017-10-08T07:30:39.550Z,9.37
2017-10-08T07:31:39.553Z,9.30
2017-10-08T07:32:39.548Z,9.37
2017-10-08T07:33:39.549Z,9.37
2017-10-08T07:34:39.549Z,9.40
2017-10-08T07:35:39.548Z,9.52
2017-10-08T07:36:39.548Z,9.48
2017-10-08T07:37:39.549Z,9.51
2017-10-08T07:38:39.549Z,9.54
2017-10-08T07:39:39.548Z,9.62
2017-10-08T07:40:39.547Z,9.56
2017-10-08T07:41:39.548Z,9.59
2017-10-08T07:42:39.549Z,9.58
2017-10-08T07:43:39.546Z,9.63
2017-10-08T07:44:39.546Z,9.63
2017-10-08T07:45:39.548Z,9.73
2017-10-08T07:46:39.547Z,9.72
2017-10-08T07:47:39.545Z,9.76
2017-10-08T07:48:39.549Z,9.74
2017-10-08T07:49:39.546Z,9.85
2017-10-08T07:50:39.546Z,9.82
2017-10-08T07:51:39.546Z,9.84
2017-10-08T07:52:39.545Z,9.84
2017-10-08T07:53:39.546Z,9.85
2017-10-08T07:54:39.546Z,9.82
2017-10-08T07:55:39.544Z,9.84
2017-10-08T07:56:39.545Z,9.76
2017-10-08T07:57:39.543Z,9.85
2017-10-08T07:58:39.544Z,9.85
2017-10-08T07:59:39.544Z,9.84
2017-10-08T08:00:39.543Z,9.92
2017-10-08T08:01:39.542Z,9.95
2017-10-08T08:02:39.544Z,10.00
2017-10-08T08:03:39.541Z,9.97
2017-10-08T08:04:39.542Z,10.02
2017-10-08T08:05:39.542Z,10.02
2017-10-08T08:06:39.541Z,10.12
2017-10-08T08:07:39.541Z,10.07
2017-10-08T08:08:39.542Z,10.10
2017-10-08T08:09:39.541Z,10.07
2017-10-08T08:10:39.541Z,10.09
2017-10-08T08:11:39.540Z,10.13
2017-10-08T08:12:39.542Z,10.18
2017-10-08T08:13:39.540Z,10.15
2017-10-08T08:14:39.540Z,10.24
2017-10-08T08:15:39.540Z,10.42
2017-10-08T08:16:39.539Z,10.38
2017-10-08T08:17:39.540Z,10.38
2017-10-08T08:18:39.540Z,10.49
2017-10-08T08:19:39.540Z,10.46
2017-10-08T08:20:39.540Z,10.49
2017-10-08T08:21:39.540Z,10.58
2017-10-08T08:22:39.541Z,10.43
2017-10-08T08:23:39.539Z,10.41
2017-10-08T08:24:39.559Z,10.45
2017-10-08T08:25:39.540Z,10.53
2017-10-08T08:26:39.540Z,10.41
2017-10-08T08:27:39.538Z,10.48
2017-10-08T08:28:39.540Z,10.53
2017-10-08T08:29:39.540Z,10.48
2017-10-08T08:30:39.542Z,10.43
2017-10-08T08:31:39.540Z,10.55
2017-10-08T08:32:39.542Z,10.48
2017-10-08T08:33:39.540Z,10.49
2017-10-08T08:34:39.542Z,10.53
2017-10-08T08:35:39.541Z,10.42
2017-10-08T08:36:39.541Z,10.48
2017-10-08T08:37:39.541Z,10.53
2017-10-08T08:38:39.541Z,10.43
2017-10-08T08:39:39.542Z,10.45
2017-10-08T08:40:39.545Z,10.41
2017-10-08T08:41:39.543Z,10.36
2017-10-08T08:42:39.544Z,10.45
2017-10-08T08:43:39.543Z,10.51
2017-10-08T08:44:39.544Z,10.51
2017-10-08T08:45:39.544Z,10.41
2017-10-08T08:46:39.543Z,10.55
2017-10-08T08:47:39.543Z,10.41
2017-10-08T08:48:39.543Z,10.55
2017-10-08T08:49:39.544Z,10.49
2017-10-08T08:50:39.547Z,10.38
2017-10-08T08:51:39.544Z,10.53
2017-10-08T08:52:39.543Z,10.53
2017-10-08T08:53:39.544Z,10.51
2017-10-08T08:54:39.544Z,10.55
2017-10-08T08:55:39.543Z,10.62
2017-10-08T08:56:39.544Z,10.62
2017-10-08T08:57:39.544Z,10.67
2017-10-08T08:58:39.544Z,10.59
2017-10-08T08:59:39.545Z,10.64
2017-10-08T09:00:39.544Z,10.76
2017-10-08T09:01:39.545Z,10.61
2017-10-08T09:02:39.546Z,10.72
2017-10-08T09:03:39.545Z,10.68
2017-10-08T09:04:39.546Z,10.61
2017-10-08T09:05:39.546Z,10.68
2017-10-08T09:06:39.569Z,10.69
2017-10-08T09:07:39.546Z,10.71
2017-10-08T09:08:39.547Z,10.75
2017-10-08T09:09:39.546Z,10.58
2017-10-08T09:10:39.547Z,10.68
2017-10-08T09:11:39.547Z,10.64
2017-10-08T09:12:39.547Z,10.58
2017-10-08T09:13:39.548Z,10.67
2017-10-08T09:14:39.549Z,10.62
2017-10-08T09:15:39.549Z,10.53
2017-10-08T09:16:39.549Z,10.43
2017-10-08T09:17:39.550Z,10.55
2017-10-08T09:18:39.551Z,10.53
2017-10-08T09:19:39.550Z,10.53
2017-10-08T09:20:39.549Z,10.43
2017-10-08T09:21:39.551Z,10.51
2017-10-08T09:22:39.550Z,10.43
2017-10-08T09:23:39.551Z,10.53
2017-10-08T09:24:39.552Z,10.53
2017-10-08T09:25:39.551Z,10.53
2017-10-08T09:26:39.553Z,10.48
2017-10-08T09:27:39.551Z,10.53
2017-10-08T09:28:39.551Z,10.62
2017-10-08T09:29:39.553Z,10.58
2017-10-08T09:30:39.552Z,10.71
2017-10-08T09:31:39.553Z,10.68
2017-10-08T09:32:39.555Z,10.71
2017-10-08T09:33:39.553Z,10.76
2017-10-08T09:34:39.555Z,10.75
2017-10-08T09:35:39.553Z,10.80
2017-10-08T09:36:39.555Z,10.82
2017-10-08T09:37:39.554Z,10.79
2017-10-08T09:38:39.556Z,10.77
2017-10-08T09:39:39.555Z,10.76
2017-10-08T09:40:39.556Z,10.84
2017-10-08T09:41:39.557Z,10.86
2017-10-08T09:42:39.558Z,10.80
2017-10-08T09:43:39.556Z,10.80
2017-10-08T09:44:39.558Z,10.75
2017-10-08T09:45:39.557Z,10.82
2017-10-08T09:46:39.557Z,10.76
2017-10-08T09:47:39.560Z,10.71
2017-10-08T09:48:39.560Z,10.62
2017-10-08T09:49:39.559Z,10.59
2017-10-08T09:50:39.559Z,10.62
2017-10-08T09:51:39.559Z,10.65
2017-10-08T09:52:39.560Z,10.62
2017-10-08T09:53:39.561Z,10.62
2017-10-08T09:54:39.565Z,10.59
2017-10-08T09:55:39.561Z,10.68
2017-10-08T09:56:39.561Z,10.67
2017-10-08T09:57:39.564Z,10.71
2017-10-08T09:58:39.564Z,10.80
2017-10-08T09:59:39.562Z,10.75
2017-10-08T10:00:39.565Z,10.75
2017-10-08T10:01:39.563Z,10.75
2017-10-08T10:02:39.564Z,10.76
2017-10-08T10:03:39.564Z,10.71
2017-10-08T10:04:39.566Z,10.72
2017-10-08T10:05:39.565Z,10.76
2017-10-08T10:06:39.566Z,10.75
2017-10-08T10:07:39.566Z,10.77
2017-10-08T10:08:39.566Z,10.76
2017-10-08T10:09:39.566Z,10.79
2017-10-08T10:10:39.569Z,10.90
2017-10-08T10:11:39.566Z,10.95
2017-10-08T10:12:39.568Z,11.07
2017-10-08T10:13:39.569Z,11.07
2017-10-08T10:14:39.570Z,11.10
2017-10-08T10:15:39.569Z,11.19
2017-10-08T10:16:39.569Z,11.22
2017-10-08T10:17:39.571Z,11.30
2017-10-08T10:18:39.574Z,11.31
2017-10-08T10:19:39.572Z,11.27
2017-10-08T10:20:39.573Z,11.23
2017-10-08T10:21:39.573Z,11.19
2017-10-08T10:22:39.575Z,11.20
2017-10-08T10:23:39.574Z,11.20
2017-10-08T10:24:39.574Z,11.19
2017-10-08T10:25:39.577Z,11.18
2017-10-08T10:26:39.576Z,11.19
2017-10-08T10:27:39.576Z,11.22
2017-10-08T10:28:39.578Z,11.20
2017-10-08T10:29:39.578Z,11.27
2017-10-08T10:30:39.579Z,11.34
2017-10-08T10:31:39.578Z,11.18
2017-10-08T10:32:39.580Z,11.16
2017-10-08T10:33:39.580Z,11.19
2017-10-08T10:34:39.580Z,11.22
2017-10-08T10:35:39.581Z,11.18
2017-10-08T10:36:39.583Z,11.26
2017-10-08T10:37:39.583Z,11.30
2017-10-08T10:38:39.584Z,11.34
2017-10-08T10:39:39.584Z,11.27
2017-10-08T10:40:39.584Z,11.37
2017-10-08T10:41:39.585Z,11.34
2017-10-08T10:42:39.586Z,11.30
2017-10-08T10:43:39.587Z,11.41
2017-10-08T10:44:39.588Z,11.34
2017-10-08T10:45:39.589Z,11.40
2017-10-08T10:46:39.589Z,11.40
2017-10-08T10:47:39.590Z,11.43
2017-10-08T10:48:39.591Z,11.44
2017-10-08T10:49:39.592Z,11.53
2017-10-08T10:50:39.593Z,11.55
2017-10-08T10:51:39.596Z,11.58
2017-10-08T10:52:39.595Z,11.60
2017-10-08T10:53:39.598Z,11.60
2017-10-08T10:54:39.596Z,11.55
2017-10-08T10:55:39.597Z,11.58
2017-10-08T10:56:39.598Z,11.43
2017-10-08T10:57:39.614Z,11.41
2017-10-08T10:58:39.600Z,11.44
2017-10-08T10:59:39.601Z,11.53
2017-10-08T11:00:39.602Z,11.51
2017-10-08T11:01:39.603Z,11.59
2017-10-08T11:02:39.605Z,11.56
2017-10-08T11:03:39.604Z,11.59
2017-10-08T11:04:39.606Z,11.52
2017-10-08T11:05:39.607Z,11.52
2017-10-08T11:06:39.610Z,11.53
2017-10-08T11:07:39.608Z,11.52
2017-10-08T11:08:39.609Z,11.55
2017-10-08T11:09:39.610Z,11.45
2017-10-08T11:10:39.613Z,11.45
2017-10-08T11:11:39.613Z,11.41
2017-10-08T11:12:39.613Z,11.41
2017-10-08T11:13:39.614Z,11.40
2017-10-08T11:14:39.615Z,11.38
2017-10-08T11:15:39.616Z,11.31
2017-10-08T11:16:39.617Z,11.38
2017-10-08T11:17:39.619Z,11.30
2017-10-08T11:18:39.621Z,11.37
2017-10-08T11:19:39.620Z,11.41
2017-10-08T11:20:39.621Z,11.45
2017-10-08T11:21:39.623Z,11.52
2017-10-08T11:22:39.624Z,11.58
2017-10-08T11:23:39.624Z,11.59
2017-10-08T11:24:39.626Z,11.65
2017-10-08T11:25:39.627Z,11.74
2017-10-08T11:26:39.627Z,11.73
2017-10-08T11:27:39.628Z,11.80
2017-10-08T11:28:39.629Z,11.91
2017-10-08T11:29:39.631Z,12.00
2017-10-08T11:30:39.633Z,11.97
2017-10-08T11:31:39.632Z,12.00
2017-10-08T11:32:39.633Z,11.88
2017-10-08T11:33:39.634Z,11.83
2017-10-08T11:34:39.638Z,11.83
2017-10-08T11:35:39.637Z,11.85
2017-10-08T11:36:39.639Z,11.76
2017-10-08T11:37:39.645Z,11.56
2017-10-08T11:38:39.644Z,11.65
2017-10-08T11:39:39.643Z,11.55
2017-10-08T11:40:39.645Z,11.62
2017-10-08T11:41:39.646Z,11.59
2017-10-08T11:42:39.647Z,11.65
2017-10-08T11:43:39.648Z,11.73
2017-10-08T11:44:39.649Z,11.63
2017-10-08T11:45:39.651Z,11.65
2017-10-08T11:46:39.653Z,11.65
2017-10-08T11:47:39.652Z,11.62
2017-10-08T11:48:39.654Z,11.60
2017-10-08T11:49:39.655Z,11.67
2017-10-08T11:50:39.658Z,11.55
2017-10-08T11:51:39.661Z,11.59
2017-10-08T11:52:39.660Z,11.62
2017-10-08T11:53:39.661Z,11.65
2017-10-08T11:54:39.661Z,11.67
2017-10-08T11:55:39.662Z,11.58
2017-10-08T11:56:39.663Z,11.63
2017-10-08T11:57:39.665Z,11.68
2017-10-08T11:58:39.666Z,11.67
2017-10-08T11:59:39.667Z,11.63
2017-10-08T12:00:39.670Z,11.73
2017-10-08T12:01:39.671Z,11.74
2017-10-08T12:02:39.672Z,11.70
2017-10-08T12:03:39.672Z,11.70
2017-10-08T12:04:39.674Z,11.71
2017-10-08T12:05:39.675Z,11.71
2017-10-08T12:06:39.677Z,11.73
2017-10-08T12:07:39.676Z,11.71
2017-10-08T12:08:39.679Z,11.76
2017-10-08T12:09:39.679Z,11.70
2017-10-08T12:10:39.682Z,11.74
2017-10-08T12:11:39.681Z,11.74
2017-10-08T12:12:39.682Z,11.81
2017-10-08T12:13:39.684Z,11.88
2017-10-08T12:14:39.686Z,11.97
2017-10-08T12:15:39.685Z,11.96
2017-10-08T12:16:39.688Z,11.97
2017-10-08T12:17:39.690Z,12.05
2017-10-08T12:18:39.692Z,12.00
2017-10-08T12:19:39.693Z,11.96
2017-10-08T12:20:39.695Z,12.17
2017-10-08T12:21:39.696Z,12.15
2017-10-08T12:22:39.696Z,12.11
2017-10-08T12:23:39.698Z,11.97
2017-10-08T12:24:39.700Z,12.15
2017-10-08T12:25:39.700Z,12.21
2017-10-08T12:26:39.701Z,12.11
2017-10-08T12:27:39.704Z,12.17
2017-10-08T12:28:39.705Z,12.20
2017-10-08T12:29:39.707Z,12.11
2017-10-08T12:30:39.707Z,12.08
2017-10-08T12:31:39.709Z,12.02
2017-10-08T12:32:39.711Z,12.18
2017-10-08T12:33:39.713Z,12.12
2017-10-08T12:34:39.714Z,12.20
2017-10-08T12:35:39.716Z,12.17
2017-10-08T12:36:39.719Z,12.18
2017-10-08T12:37:39.719Z,12.14
2017-10-08T12:38:39.720Z,12.25
2017-10-08T12:39:39.722Z,12.18
2017-10-08T12:40:39.724Z,12.25
2017-10-08T12:41:39.724Z,12.32
2017-10-08T12:42:39.726Z,12.44
2017-10-08T12:43:39.728Z,12.26
2017-10-08T12:44:39.731Z,12.33
2017-10-08T12:45:39.731Z,12.21
2017-10-08T12:46:39.733Z,12.15
2017-10-08T12:47:39.733Z,12.17
2017-10-08T12:48:39.736Z,12.29
2017-10-08T12:49:39.737Z,12.33
2017-10-08T12:50:39.740Z,12.28
2017-10-08T12:51:39.742Z,12.29
2017-10-08T12:52:39.742Z,12.30
2017-10-08T12:53:39.745Z,12.36
2017-10-08T12:54:39.746Z,12.37
2017-10-08T12:55:39.747Z,12.35
2017-10-08T12:56:39.748Z,12.36
2017-10-08T12:57:39.752Z,12.33
2017-10-08T12:58:39.752Z,12.32
2017-10-08T12:59:39.755Z,12.36
2017-10-08T13:00:39.756Z,12.36
2017-10-08T13:01:39.758Z,12.39
2017-10-08T13:02:39.759Z,12.47
2017-10-08T13:03:39.771Z,12.44
2017-10-08T13:04:39.763Z,12.50
2017-10-08T13:05:39.764Z,12.50